Historique des mesures à Cassis (13260), France
Quotidien Résumé Juin 19, 2018 Unités:  Métrique    US   Métrique/US
« Précédent (Jour)
Suivant (Jour) »
Quotidien Hebdomadaire Mensuel Annuel Période au choix
  Maximum: Minimum: Moyenne:
Température: TemperatureC °C 22.4 °C 25.7 °C
Point de rosée: DewpointC °C 13.9 °C 15.5 °C
Humidité: Humidity % 44 % 51 %
Vitesse du vent: 0 km/h 0 km/h 3.4 km/h
Rafales: 0 km/h - -
Vent:- - South
Pression: PressurehPa hPa 1012.9 hPa -
Précipitations: 0.0 mm    
Historical Graphs
 
 
Mesures pour : Juin 19, 2018
Heure Temperature Point de rosée Pression Vent Vitesse du vent Rafales Humidité Pluie (par heure) Conditions
TemperatureC °C DewpointC °C PressurehPa hPa Calm     Humidity % HourlyPrecipMM mm SoftwareType W/m2
00:10 23.4 °C 14.1 °C 1013.5 hPa Calm   4.7 km/h 56 % 0.0 mm open2300-1.11 W/m2
01:10 23.0 °C 13.9 °C 1013.2 hPa NW 2.3 km/h 5.1 km/h 57 % 0.0 mm open2300-1.11 W/m2
02:10 22.4 °C 14.0 °C 1013.1 hPa NNW 8 km/h 8 km/h 59 % 0.0 mm open2300-1.11 W/m2
03:10 22.6 °C 14.2 °C 1012.9 hPa NW 8.9 km/h 8.9 km/h 59 % 0.0 mm open2300-1.11 W/m2
04:10 22.6 °C 14.2 °C 1013.1 hPa NNW 5.1 km/h 5.1 km/h 59 % 0.0 mm open2300-1.11 W/m2
05:10 22.8 °C 14.3 °C 1013.4 hPa North 5.1 km/h 5.6 km/h 59 % 0.0 mm open2300-1.11 W/m2
06:10 22.6 °C 14.2 °C 1013.6 hPa NNW 4.2 km/h 6.4 km/h 59 % 0.0 mm open2300-1.11 W/m2
07:10 22.8 °C 14.3 °C 1014.0 hPa Calm   2.3 km/h 59 % 0.0 mm open2300-1.11 W/m2
08:10 25.3 °C 16.2 °C 1014.5 hPa Calm   7.6 km/h 57 % 0.0 mm open2300-1.11 W/m2
09:10 24.4 °C 15.6 °C 1015.0 hPa Calm   3.4 km/h 58 % 0.0 mm open2300-1.11 W/m2
10:10 26.7 °C 16.9 °C 1015.3 hPa East 4.7 km/h 5.6 km/h 55 % 0.0 mm open2300-1.11 W/m2
11:10 30.3 °C 17.7 °C 1015.3 hPa SE 9.8 km/h 9.8 km/h 47 % 0.0 mm open2300-1.11 W/m2
12:10 31.9 °C 18.1 °C 1015.5 hPa SE 3.4 km/h 6.9 km/h 44 % 0.0 mm open2300-1.11 W/m2
13:10 32.3 °C 18.4 °C 1015.5 hPa East 3.4 km/h 6.4 km/h 44 % 0.0 mm open2300-1.11 W/m2
14:10 32.3 °C 18.4 °C 1015.3 hPa South 9.3 km/h 9.8 km/h 44 % 0.0 mm open2300-1.11 W/m2
15:10 32.1 °C 18.2 °C 1015.3 hPa SSE 5.1 km/h 15.6 km/h 44 % 0.0 mm open2300-1.11 W/m2
16:10 31.4 °C 18.0 °C 1015.1 hPa ESE 4.7 km/h 6.9 km/h 45 % 0.0 mm open2300-1.11 W/m2
17:10 30.6 °C 17.7 °C 1014.9 hPa SE 7.6 km/h 10.9 km/h 46 % 0.0 mm open2300-1.11 W/m2
18:10 29.4 °C 17.3 °C 1014.6 hPa Calm   5.1 km/h 48 % 0.0 mm open2300-1.11 W/m2
19:10 28.5 °C 16.7 °C 1014.3 hPa SE 4.7 km/h 4.7 km/h 49 % 0.0 mm open2300-1.11 W/m2
20:10 27.6 °C 16.6 °C 1014.2 hPa Calm     51 % 0.0 mm open2300-1.11 W/m2
21:10 26.8 °C 16.4 °C 1013.9 hPa Calm     53 % 0.0 mm open2300-1.11 W/m2
22:10 25.6 °C 16.2 °C 1014.2 hPa Calm     56 % 0.0 mm open2300-1.11 W/m2
23:10 24.7 °C 16.2 °C 1014.6 hPa Calm     59 % 0.0 mm open2300-1.11 W/m2
Observations météo à CASSIS
WU-History script by Weather Underground - 1 mb